createdAt,value
2023-02-16T22:59:32.656Z,1019.62
2023-02-16T23:00:32.662Z,1019.59
2023-02-16T23:01:32.713Z,1019.55
2023-02-16T23:02:32.618Z,1019.56
2023-02-16T23:03:32.589Z,1019.54
2023-02-16T23:04:32.585Z,1019.56
2023-02-16T23:05:32.573Z,1019.61
2023-02-16T23:06:32.560Z,1019.59
2023-02-16T23:07:32.556Z,1019.70
2023-02-16T23:08:32.546Z,1019.64
2023-02-16T23:09:32.511Z,1019.68
2023-02-16T23:10:32.496Z,1019.69
2023-02-16T23:11:32.462Z,1019.68
2023-02-16T23:12:32.479Z,1019.69
2023-02-16T23:13:32.458Z,1019.71
2023-02-16T23:14:35.071Z,1019.73
2023-02-16T23:15:32.422Z,1019.74
2023-02-16T23:16:32.417Z,1019.72
2023-02-16T23:17:32.404Z,1019.65
2023-02-16T23:18:32.366Z,1019.64
2023-02-16T23:19:32.349Z,1019.64
2023-02-16T23:20:32.341Z,1019.67
2023-02-16T23:21:32.353Z,1019.71
2023-02-16T23:22:32.352Z,1019.69
2023-02-16T23:23:32.308Z,1019.69
2023-02-16T23:24:32.287Z,1019.69
2023-02-16T23:25:32.252Z,1019.59
2023-02-16T23:26:32.254Z,1019.60
2023-02-16T23:27:32.237Z,1019.60
2023-02-16T23:28:32.262Z,1019.59
2023-02-16T23:29:32.202Z,1019.60
2023-02-16T23:30:32.207Z,1019.61
2023-02-16T23:31:32.263Z,1019.58
2023-02-16T23:32:32.169Z,1019.56
2023-02-16T23:33:32.142Z,1019.50
2023-02-16T23:34:32.156Z,1019.46
2023-02-16T23:35:32.135Z,1019.49
2023-02-16T23:36:32.119Z,1019.50
2023-02-16T23:37:32.090Z,1019.52
2023-02-16T23:38:32.102Z,1019.53
2023-02-16T23:39:32.058Z,1019.52
2023-02-16T23:40:32.038Z,1019.50
2023-02-16T23:41:32.042Z,1019.46
2023-02-16T23:42:32.028Z,1019.38
2023-02-16T23:43:31.988Z,1019.45
2023-02-16T23:44:31.980Z,1019.41
2023-02-16T23:45:31.982Z,1019.42
2023-02-16T23:46:32.012Z,1019.46
2023-02-16T23:47:31.935Z,1019.39
2023-02-16T23:48:31.928Z,1019.40
2023-02-16T23:49:31.891Z,1019.32
2023-02-16T23:50:40.594Z,1019.34
2023-02-16T23:51:31.881Z,1019.33
2023-02-16T23:52:31.916Z,1019.35
2023-02-16T23:53:31.891Z,1019.43
2023-02-16T23:54:31.854Z,1019.36
2023-02-16T23:55:31.802Z,1019.42
2023-02-16T23:56:31.796Z,1019.34
2023-02-16T23:57:31.827Z,1019.37
2023-02-16T23:58:31.826Z,1019.37
2023-02-16T23:59:31.776Z,1019.35
